Time;durP1;ratioP1;P1;durP2;ratioP2;P2;SDS_P1;SDS_P2;PMS_P1;PMS_P2;Temp;Humidity;BMP_temperature;BMP_pressure;BME280_temperature;BME280_humidity;BME280_pressure;Samples;Min_cycle;Max_cycle;Signal;HPM_P1;HPM_P2
2023/07/09 00:02:23;;;;;;;;;15.40;14.80;;;;;26.78;54.18;99454.50;5090406;27;45328;-62
2023/07/09 00:04:48;;;;;;;;;14.50;14.00;;;;;26.76;54.08;99451.09;5097040;27;45384;-72
2023/07/09 00:07:23;;;;;;;;;16.00;15.25;;;;;26.76;53.99;99454.66;5095406;27;45512;-72
2023/07/09 00:09:49;;;;;;;;;18.50;15.50;;;;;26.75;53.77;99452.09;5096028;27;45294;-72
2023/07/09 00:12:17;;;;;;;;;14.80;14.80;;;;;26.73;53.76;99457.66;5093256;27;45505;-72
2023/07/09 00:14:43;;;;;;;;;16.50;16.00;;;;;26.72;53.79;99460.53;5089129;27;45291;-72
2023/07/09 00:17:19;;;;;;;;;20.50;17.25;;;;;26.70;53.92;99452.56;5095165;27;45591;-72
2023/07/09 00:19:45;;;;;;;;;15.50;12.25;;;;;26.69;54.02;99456.28;5096002;27;45519;-72
2023/07/09 00:22:18;;;;;;;;;15.75;15.75;;;;;26.66;54.07;99459.28;5096936;27;45490;-72
2023/07/09 00:24:50;;;;;;;;;22.00;18.00;;;;;26.64;54.29;99461.31;5090778;27;45503;-72
2023/07/09 00:27:18;;;;;;;;;13.50;12.25;;;;;26.62;54.14;99465.19;5095376;27;45537;-72
2023/07/09 00:29:44;;;;;;;;;17.25;16.75;;;;;26.58;54.42;99467.34;5090969;27;46349;-74
2023/07/09 00:32:20;;;;;;;;;17.60;16.20;;;;;26.53;54.01;99464.25;5094374;27;45418;-72
2023/07/09 00:34:48;;;;;;;;;15.75;14.25;;;;;26.48;54.72;99466.56;5096177;27;45487;-72
2023/07/09 00:37:19;;;;;;;;;19.50;19.00;;;;;26.45;54.57;99463.34;5095900;27;45554;-72
2023/07/09 00:39:45;;;;;;;;;19.00;15.00;;;;;26.41;54.86;99462.78;5091068;27;45479;-72
2023/07/09 00:42:17;;;;;;;;;16.80;16.60;;;;;26.39;55.06;99465.63;5085693;27;45389;-72
2023/07/09 00:44:45;;;;;;;;;16.50;15.50;;;;;26.38;54.73;99465.78;5094226;27;45521;-72
2023/07/09 00:47:58;;;;;;;;;19.00;17.75;;;;;26.37;54.94;99464.94;5086730;27;45459;-72
2023/07/09 00:50:27;;;;;;;;;19.50;17.75;;;;;26.34;54.94;99472.50;5086969;27;46453;-72
2023/07/09 00:52:57;;;;;;;;;12.20;10.60;;;;;26.32;54.98;99471.78;5092517;27;45478;-72
2023/07/09 00:55:32;;;;;;;;;18.75;16.75;;;;;26.31;55.21;99478.22;5096276;27;45500;-72
2023/07/09 00:58:03;;;;;;;;;17.75;17.50;;;;;26.29;55.44;99483.78;5093016;27;45518;-72
2023/07/09 01:00:46;;;;;;;;;17.00;15.75;;;;;26.30;55.39;99484.66;5089771;27;46315;-72
2023/07/09 01:03:20;;;;;;;;;15.40;15.40;;;;;26.29;55.67;99482.94;5083024;27;45624;-72
2023/07/09 01:05:51;;;;;;;;;16.00;16.00;;;;;26.29;55.56;99478.38;5094757;27;45406;-71
2023/07/09 01:08:19;;;;;;;;;19.50;17.75;;;;;26.28;56.01;99481.22;5095858;27;45542;-72
2023/07/09 01:10:44;;;;;;;;;19.50;17.50;;;;;26.27;55.86;99485.75;5111819;27;48179;-72
2023/07/09 01:13:10;;;;;;;;;15.50;15.50;;;;;26.23;55.90;99484.34;5089689;27;45451;-72
2023/07/09 01:15:37;;;;;;;;;18.25;17.50;;;;;26.22;55.87;99479.94;5095578;27;45427;-72
2023/07/09 01:18:04;;;;;;;;;15.25;13.75;;;;;26.20;55.92;99481.09;5094092;27;45911;-72
2023/07/09 01:20:30;;;;;;;;;18.50;17.50;;;;;26.18;55.90;99489.34;5090810;27;45527;-72
2023/07/09 01:22:56;;;;;;;;;21.00;17.00;;;;;26.18;56.18;99483.09;5085245;27;45641;-72
2023/07/09 01:25:23;;;;;;;;;22.75;17.50;;;;;26.16;56.00;99477.00;5095101;27;45289;-72
2023/07/09 01:27:49;;;;;;;;;15.75;15.75;;;;;26.14;56.15;99479.88;5095558;27;45460;-72
2023/07/09 01:30:22;;;;;;;;;17.00;16.25;;;;;26.13;56.20;99483.59;5093303;27;46530;-72
2023/07/09 01:32:47;;;;;;;;;17.40;16.00;;;;;26.11;56.22;99482.03;5095179;27;45321;-72
2023/07/09 01:35:17;;;;;;;;;19.75;18.25;;;;;26.10;56.01;99481.19;5095334;27;45432;-72
2023/07/09 01:37:43;;;;;;;;;14.25;14.25;;;;;26.06;56.33;99480.63;5095941;27;45528;-72
2023/07/09 01:40:11;;;;;;;;;17.25;16.25;;;;;26.07;56.33;99476.06;5093032;27;48538;-72
2023/07/09 01:42:40;;;;;;;;;15.80;15.60;;;;;26.05;56.39;99478.06;5100656;27;45264;-72
2023/07/09 01:45:07;;;;;;;;;15.75;15.50;;;;;26.04;56.52;99479.91;5093235;27;45502;-71
2023/07/09 01:47:33;;;;;;;;;15.25;15.25;;;;;26.00;56.40;99478.50;5091276;27;45358;-72
2023/07/09 01:49:59;;;;;;;;;16.75;16.00;;;;;25.99;56.41;99476.81;5092039;27;45415;-72
2023/07/09 01:52:29;;;;;;;;;17.00;17.00;;;;;25.97;56.30;99486.09;5090759;27;45383;-72
2023/07/09 01:54:55;;;;;;;;;13.25;11.25;;;;;25.94;56.40;99491.78;5095039;27;45413;-72
2023/07/09 01:57:23;;;;;;;;;19.50;17.00;;;;;25.92;56.41;99489.25;5091670;27;45693;-72
2023/07/09 01:59:54;;;;;;;;;16.75;16.75;;;;;25.91;56.46;99487.53;5094055;27;46162;-72
2023/07/09 02:02:25;;;;;;;;;15.80;15.00;;;;;25.90;56.26;99493.09;5092464;27;45449;-72
2023/07/09 02:04:56;;;;;;;;;16.50;15.00;;;;;25.88;56.35;99487.81;5091750;27;45513;-72
2023/07/09 02:07:23;;;;;;;;;15.25;15.00;;;;;25.85;56.64;99495.38;5093938;27;45533;-72
2023/07/09 02:09:49;;;;;;;;;19.00;17.50;;;;;25.84;56.80;99499.06;5092263;27;45533;-72
2023/07/09 02:12:15;;;;;;;;;17.25;14.25;;;;;25.82;56.84;99501.06;5109417;27;45411;-72
2023/07/09 02:14:42;;;;;;;;;18.00;14.75;;;;;25.78;56.88;99502.38;5087973;27;45431;-72
2023/07/09 02:17:09;;;;;;;;;16.00;14.75;;;;;25.76;56.86;99491.72;5092244;27;45401;-72
2023/07/09 02:19:36;;;;;;;;;19.00;17.75;;;;;25.73;57.29;99497.44;5094109;27;45379;-72
2023/07/09 02:22:01;;;;;;;;;18.00;16.60;;;;;25.68;57.24;99495.16;5095149;27;45506;-72
2023/07/09 02:24:27;;;;;;;;;22.00;17.50;;;;;25.64;57.45;99496.44;5094124;27;45437;-72
2023/07/09 02:26:59;;;;;;;;;18.00;17.00;;;;;25.62;57.66;99503.03;5095043;27;45532;-72
2023/07/09 02:29:26;;;;;;;;;17.50;17.50;;;;;25.59;57.80;99504.13;5094512;27;45577;-72
2023/07/09 02:31:52;;;;;;;;;18.75;17.25;;;;;25.57;58.08;99508.81;5094341;27;45427;-72
2023/07/09 02:34:19;;;;;;;;;18.00;16.50;;;;;25.54;58.21;99503.72;5085142;27;45495;-72
2023/07/09 02:36:45;;;;;;;;;16.25;16.25;;;;;25.52;58.27;99505.69;5091031;27;45366;-73
2023/07/09 02:39:12;;;;;;;;;17.25;15.75;;;;;25.49;58.66;99506.00;5096933;27;46000;-72
2023/07/09 02:41:39;;;;;;;;;18.40;17.20;;;;;25.49;58.26;99502.44;5098086;27;45366;-72
2023/07/09 02:44:04;;;;;;;;;18.00;15.50;;;;;25.47;58.72;99507.16;5097861;27;45449;-72
2023/07/09 02:46:30;;;;;;;;;15.75;15.75;;;;;25.45;58.69;99499.22;5096743;27;45532;-72
2023/07/09 02:48:56;;;;;;;;;13.00;13.00;;;;;25.46;58.57;99503.63;5097528;27;45477;-72
2023/07/09 02:51:21;;;;;;;;;14.50;14.50;;;;;25.45;58.57;99507.31;5096326;27;45474;-72
2023/07/09 02:53:48;;;;;;;;;19.25;17.50;;;;;25.45;58.81;99503.75;5097801;27;45582;-72
2023/07/09 02:56:13;;;;;;;;;18.00;17.00;;;;;25.44;59.27;99504.75;5097332;27;45590;-72
2023/07/09 02:58:39;;;;;;;;;16.00;16.00;;;;;25.44;59.46;99505.59;5097279;27;45511;-72
2023/07/09 03:01:05;;;;;;;;;18.50;18.00;;;;;25.42;59.51;99506.75;5095212;27;45365;-72
2023/07/09 03:03:30;;;;;;;;;18.00;16.75;;;;;25.41;59.55;99507.75;5097033;27;45378;-72
2023/07/09 03:05:56;;;;;;;;;17.75;17.25;;;;;25.38;59.48;99509.72;5111655;27;45519;-71
2023/07/09 03:08:21;;;;;;;;;19.25;16.75;;;;;25.35;59.49;99512.72;5096947;27;45570;-71
2023/07/09 03:10:47;;;;;;;;;16.25;15.25;;;;;25.32;59.03;99510.28;5097803;27;45365;-71
2023/07/09 03:13:12;;;;;;;;;7.00;6.00;;;;;25.31;58.94;99510.44;5096657;27;45611;-71
2023/07/09 03:15:37;;;;;;;;;17.25;14.50;;;;;25.25;58.83;99505.66;5097891;27;45595;-71
2023/07/09 03:18:03;;;;;;;;;16.00;14.50;;;;;25.21;59.29;99515.88;5096810;27;45394;-71
2023/07/09 03:20:28;;;;;;;;;17.25;15.25;;;;;25.18;59.47;99510.75;5097916;27;45459;-72
2023/07/09 03:22:54;;;;;;;;;22.50;19.00;;;;;25.17;59.64;99517.16;5097683;27;45506;-72
2023/07/09 03:25:19;;;;;;;;;15.50;13.50;;;;;25.15;59.57;99512.88;5113457;27;45528;-71
2023/07/09 03:27:48;;;;;;;;;14.25;13.75;;;;;25.14;59.59;99521.97;5097614;27;46095;-71
2023/07/09 03:30:13;;;;;;;;;17.00;15.20;;;;;25.11;59.49;99519.59;5094243;27;45453;-71
2023/07/09 03:32:39;;;;;;;;;17.75;17.00;;;;;25.09;59.36;99517.03;5092350;27;45400;-71
2023/07/09 03:35:04;;;;;;;;;17.75;17.75;;;;;25.07;59.01;99512.78;5096971;27;45493;-71
2023/07/09 03:37:30;;;;;;;;;15.00;15.00;;;;;25.07;59.35;99523.56;5097240;27;46202;-72
2023/07/09 03:39:55;;;;;;;;;19.25;18.00;;;;;25.03;59.42;99520.28;5095431;27;45684;-71
2023/07/09 03:42:20;;;;;;;;;18.25;15.50;;;;;25.01;60.00;99524.97;5086180;27;45372;-72
2023/07/09 03:44:46;;;;;;;;;21.00;15.00;;;;;24.98;59.83;99528.81;5095029;27;45567;-71
2023/07/09 03:47:11;;;;;;;;;20.50;18.50;;;;;24.95;59.79;99521.03;5095347;27;45534;-72
2023/07/09 03:49:37;;;;;;;;;18.25;16.75;;;;;24.93;59.99;99522.13;5094522;27;45329;-72
2023/07/09 03:52:03;;;;;;;;;17.00;16.75;;;;;24.91;59.88;99519.56;5097279;27;45421;-72
2023/07/09 03:54:29;;;;;;;;;14.75;13.75;;;;;24.90;59.45;99523.25;5095313;27;45386;-72
2023/07/09 03:56:54;;;;;;;;;18.75;17.25;;;;;24.89;59.67;99524.25;5097408;27;45496;-72
2023/07/09 03:59:19;;;;;;;;;17.75;17.50;;;;;24.89;59.48;99520.69;5087918;27;45467;-72
2023/07/09 04:01:45;;;;;;;;;18.75;16.75;;;;;24.87;59.34;99525.38;5097066;27;45444;-72
2023/07/09 04:04:12;;;;;;;;;15.00;14.00;;;;;24.84;59.50;99526.50;5092756;27;45815;-71
2023/07/09 04:06:37;;;;;;;;;11.75;11.75;;;;;24.83;59.63;99530.22;5096715;27;46180;-72
2023/07/09 04:09:02;;;;;;;;;18.25;15.75;;;;;24.83;59.81;99526.66;5089253;27;45514;-72
2023/07/09 04:11:28;;;;;;;;;13.25;13.25;;;;;24.82;60.22;99533.91;5092105;27;45438;-72
2023/07/09 04:13:53;;;;;;;;;15.75;15.25;;;;;24.81;60.03;99521.41;5091742;27;45525;-71
2023/07/09 04:16:18;;;;;;;;;18.75;17.75;;;;;24.80;59.96;99524.28;5096630;27;45437;-71
2023/07/09 04:18:44;;;;;;;;;17.00;17.00;;;;;24.81;59.63;99528.63;5096443;27;45411;-71
2023/07/09 04:21:09;;;;;;;;;15.00;15.00;;;;;24.80;59.51;99529.66;5096282;27;45591;-71
2023/07/09 04:23:35;;;;;;;;;19.25;18.50;;;;;24.76;59.88;99526.38;5094688;27;45439;-71
2023/07/09 04:26:02;;;;;;;;;17.00;16.25;;;;;24.73;60.04;99539.28;5087575;27;45776;-71
2023/07/09 04:28:30;;;;;;;;;15.80;14.00;;;;;24.72;60.40;99534.91;5089993;27;45445;-71
2023/07/09 04:30:55;;;;;;;;;15.75;14.25;;;;;24.70;60.43;99533.19;5088091;27;45411;-71
2023/07/09 04:33:21;;;;;;;;;20.00;17.75;;;;;24.70;60.48;99535.03;5080728;27;45515;-72
2023/07/09 04:35:47;;;;;;;;;18.00;17.75;;;;;24.72;60.80;99537.59;5087640;27;46041;-62
2023/07/09 04:38:13;;;;;;;;;13.25;13.25;;;;;24.80;60.55;99537.75;5091313;27;45415;-63
2023/07/09 04:40:39;;;;;;;;;17.50;16.50;;;;;24.91;60.50;99540.31;5091376;27;45586;-63
2023/07/09 04:43:05;;;;;;;;;21.00;18.50;;;;;25.00;60.15;99534.91;5094202;27;45427;-63
2023/07/09 04:45:30;;;;;;;;;17.25;17.25;;;;;25.06;60.20;99536.19;5091991;27;45416;-63
2023/07/09 04:47:55;;;;;;;;;18.00;16.75;;;;;25.07;60.29;99531.66;5095453;27;45376;-63
2023/07/09 04:50:21;;;;;;;;;18.00;16.25;;;;;25.08;60.19;99525.28;5090381;27;45710;-67
2023/07/09 04:52:46;;;;;;;;;17.00;15.50;;;;;25.08;60.26;99525.28;5091030;27;45356;-64
2023/07/09 04:55:12;;;;;;;;;17.00;15.50;;;;;25.14;60.42;99532.78;5095002;27;45466;-64
2023/07/09 04:57:37;;;;;;;;;21.75;19.50;;;;;25.21;60.18;99533.91;5096444;27;45478;-64
2023/07/09 05:00:07;;;;;;;;;15.75;15.75;;;;;25.27;60.13;99527.94;5094357;27;46092;-64
2023/07/09 05:02:33;;;;;;;;;17.50;17.50;;;;;25.34;60.07;99529.91;5095246;27;45381;-64
2023/07/09 05:04:59;;;;;;;;;18.25;16.50;;;;;25.40;59.52;99528.47;5088444;27;46965;-64
2023/07/09 05:07:25;;;;;;;;;17.50;17.50;;;;;25.44;59.20;99535.31;5095662;27;45495;-65
2023/07/09 05:09:50;;;;;;;;;15.00;14.25;;;;;25.43;59.26;99525.50;5092465;27;45638;-64
2023/07/09 05:12:15;;;;;;;;;17.50;15.25;;;;;25.41;58.99;99524.78;5095717;27;45428;-64
2023/07/09 05:14:41;;;;;;;;;16.50;16.00;;;;;25.41;59.18;99530.19;5089517;27;45331;-64
2023/07/09 05:17:07;;;;;;;;;19.00;16.50;;;;;25.45;58.91;99530.75;5095631;27;45615;-64
2023/07/09 05:19:33;;;;;;;;;17.25;15.25;;;;;25.41;58.36;99527.50;5095422;27;45391;-66
2023/07/09 05:21:58;;;;;;;;;15.25;14.25;;;;;25.38;58.68;99527.78;5095588;27;45502;-66
2023/07/09 05:24:23;;;;;;;;;17.75;16.50;;;;;25.35;58.58;99526.22;5094520;27;45495;-66
2023/07/09 05:26:49;;;;;;;;;14.25;12.75;;;;;25.33;58.53;99522.81;5094255;27;45591;-66
2023/07/09 05:29:14;;;;;;;;;20.25;16.25;;;;;25.34;58.89;99529.91;5090488;27;45480;-66
2023/07/09 05:31:41;;;;;;;;;18.00;15.25;;;;;25.35;58.87;99530.75;5085459;27;45483;-66
2023/07/09 05:34:07;;;;;;;;;16.75;14.75;;;;;25.35;58.85;99531.59;5089515;27;45572;-66
2023/07/09 05:36:33;;;;;;;;;16.00;14.75;;;;;25.33;58.84;99536.28;5087222;27;45552;-66
2023/07/09 05:38:58;;;;;;;;;19.25;16.75;;;;;25.31;58.93;99529.34;5095165;27;45494;-66
2023/07/09 05:41:24;;;;;;;;;19.50;17.75;;;;;25.30;58.82;99531.19;5087899;27;45525;-66
2023/07/09 05:43:51;;;;;;;;;14.50;13.25;;;;;25.30;58.96;99530.38;5093689;27;46075;-66
2023/07/09 05:46:16;;;;;;;;;19.80;17.80;;;;;25.30;59.11;99533.88;5088400;27;45379;-66
2023/07/09 05:48:42;;;;;;;;;17.00;15.50;;;;;25.31;59.40;99529.34;5094460;27;45580;-66
2023/07/09 05:51:08;;;;;;;;;18.25;17.75;;;;;25.32;59.65;99534.59;5089761;27;45305;-66
2023/07/09 05:53:34;;;;;;;;;17.00;15.25;;;;;25.34;59.15;99534.44;5094659;27;45503;-67
2023/07/09 05:56:00;;;;;;;;;17.25;16.25;;;;;25.34;59.15;99532.59;5089754;27;45532;-67
2023/07/09 05:58:25;;;;;;;;;17.75;17.75;;;;;25.35;58.99;99534.31;5086568;27;45487;-67
2023/07/09 06:00:56;;;;;;;;;17.75;16.50;;;;;25.36;58.94;99530.63;5091127;27;45459;-67
2023/07/09 06:03:22;;;;;;;;;15.25;15.25;;;;;25.36;59.06;99527.91;5093821;27;45398;-67
2023/07/09 06:05:52;;;;;;;;;13.80;13.80;;;;;25.38;58.98;99528.63;5089480;27;45394;-67
2023/07/09 06:08:18;;;;;;;;;14.50;13.75;;;;;25.40;58.98;99528.47;5094362;27;45375;-67
2023/07/09 06:10:58;;;;;;;;;19.00;15.25;;;;;25.46;58.58;99535.16;5093808;27;45463;-67
2023/07/09 06:13:24;;;;;;;;;17.50;14.50;;;;;25.49;58.36;99524.03;5090961;27;45505;-67
2023/07/09 06:15:51;;;;;;;;;16.80;14.20;;;;;25.53;58.00;99529.00;5089514;27;45502;-67
2023/07/09 06:18:16;;;;;;;;;16.00;16.00;;;;;25.56;57.64;99523.31;5093734;27;45364;-67
2023/07/09 06:20:47;;;;;;;;;15.75;15.00;;;;;25.61;57.47;99531.00;5093998;27;45444;-67
2023/07/09 06:23:12;;;;;;;;;15.25;15.00;;;;;25.64;57.75;99538.81;5093543;27;46085;-67
2023/07/09 06:25:38;;;;;;;;;16.25;16.00;;;;;25.70;57.26;99527.44;5092146;27;45424;-67
2023/07/09 06:28:04;;;;;;;;;16.75;16.75;;;;;25.76;57.22;99536.78;5093629;27;45370;-67
2023/07/09 06:30:29;;;;;;;;;18.00;15.50;;;;;25.79;57.30;99533.81;5084873;27;45645;-67
2023/07/09 06:32:54;;;;;;;;;14.00;14.00;;;;;25.85;56.97;99533.19;5091592;27;45439;-67
2023/07/09 06:35:20;;;;;;;;;15.00;15.00;;;;;25.87;56.47;99540.16;5085924;27;45454;-67
2023/07/09 06:37:45;;;;;;;;;16.25;15.25;;;;;25.89;56.21;99529.19;5090787;27;45392;-67
2023/07/09 06:40:12;;;;;;;;;16.00;15.00;;;;;25.93;56.38;99531.47;5092078;27;45389;-67
2023/07/09 06:42:38;;;;;;;;;18.50;18.25;;;;;25.96;56.00;99539.28;5091588;27;47466;-67
2023/07/09 06:45:04;;;;;;;;;23.25;23.25;;;;;25.99;55.65;99540.81;5093304;27;45544;-67
2023/07/09 06:47:29;;;;;;;;;20.00;17.50;;;;;26.03;55.57;99536.81;5093073;27;45509;-68
2023/07/09 06:49:55;;;;;;;;;10.50;10.00;;;;;26.08;55.00;99537.22;5092457;27;45423;-67
2023/07/09 06:52:20;;;;;;;;;14.75;14.00;;;;;26.14;55.29;99536.63;5092249;27;45397;-67
2023/07/09 06:54:46;;;;;;;;;18.25;17.00;;;;;26.19;55.01;99547.81;5092607;27;45400;-67
2023/07/09 06:57:11;;;;;;;;;13.00;12.50;;;;;26.24;54.90;99547.38;5093495;27;45397;-67
2023/07/09 06:59:37;;;;;;;;;17.25;15.00;;;;;26.30;54.76;99536.88;5092577;27;45526;-67
2023/07/09 07:02:03;;;;;;;;;16.50;15.50;;;;;26.34;54.55;99542.78;5092323;27;45488;-67
2023/07/09 07:04:29;;;;;;;;;16.75;15.50;;;;;26.40;54.09;99542.19;5092242;27;45380;-67
2023/07/09 07:06:56;;;;;;;;;15.00;15.00;;;;;26.45;54.47;99536.34;5093883;27;45528;-67
2023/07/09 07:09:22;;;;;;;;;17.50;15.25;;;;;26.51;53.61;99533.84;5092183;27;45804;-67
2023/07/09 07:11:48;;;;;;;;;14.25;12.75;;;;;26.56;53.08;99534.25;5093669;27;46037;-67
2023/07/09 07:14:13;;;;;;;;;15.00;15.00;;;;;26.62;53.33;99539.06;5091674;27;45607;-67
2023/07/09 07:16:38;;;;;;;;;11.25;11.25;;;;;26.68;53.00;99541.13;5093556;27;45487;-67
2023/07/09 07:19:05;;;;;;;;;18.50;17.00;;;;;26.71;52.56;99543.53;5086276;27;45305;-67
2023/07/09 07:21:31;;;;;;;;;12.75;12.75;;;;;26.76;52.33;99546.66;5093022;27;45425;-68
2023/07/09 07:23:56;;;;;;;;;15.50;13.50;;;;;26.80;52.61;99543.63;5089281;27;45354;-67
2023/07/09 07:26:22;;;;;;;;;15.00;14.50;;;;;26.83;52.13;99546.00;5089651;27;45455;-67
2023/07/09 07:28:47;;;;;;;;;16.75;16.50;;;;;26.87;51.86;99536.59;5093525;27;45404;-67
2023/07/09 07:31:13;;;;;;;;;15.75;15.75;;;;;26.90;51.75;99542.53;5105089;27;46293;-67
2023/07/09 07:33:41;;;;;;;;;16.75;13.75;;;;;26.94;52.64;99540.41;5096381;27;45379;-67
2023/07/09 07:36:07;;;;;;;;;13.25;13.25;;;;;26.99;52.69;99538.06;5091714;27;45442;-68
2023/07/09 07:38:33;;;;;;;;;16.00;14.25;;;;;27.04;52.26;99542.03;5094624;27;45426;-67
2023/07/09 07:41:00;;;;;;;;;17.25;17.25;;;;;27.08;52.11;99532.59;5092132;27;45822;-67
2023/07/09 07:43:25;;;;;;;;;14.00;13.40;;;;;27.12;51.58;99533.13;5096214;27;45441;-67
2023/07/09 07:45:51;;;;;;;;;16.75;15.75;;;;;27.16;51.83;99542.63;5093451;27;46002;-66
2023/07/09 07:48:16;;;;;;;;;16.25;16.00;;;;;27.18;51.49;99532.47;5096501;27;45385;-66
2023/07/09 07:50:41;;;;;;;;;15.00;13.75;;;;;27.23;51.53;99535.56;5094519;27;45640;-66
2023/07/09 07:53:08;;;;;;;;;15.25;14.75;;;;;27.27;51.53;99534.25;5093887;27;45575;-66
2023/07/09 07:55:34;;;;;;;;;15.25;15.25;;;;;27.32;51.31;99528.34;5093698;27;45421;-69
2023/07/09 07:58:02;;;;;;;;;19.50;15.00;;;;;27.39;51.40;99534.84;5092762;27;45443;-69
2023/07/09 08:00:28;;;;;;;;;17.50;17.50;;;;;27.47;50.88;99526.78;5091142;27;45500;-70
2023/07/09 08:02:53;;;;;;;;;17.50;16.00;;;;;27.55;50.95;99521.41;5095814;27;45523;-70
2023/07/09 08:05:19;;;;;;;;;16.75;14.75;;;;;27.62;50.64;99527.09;5110981;27;45912;-69
2023/07/09 08:07:44;;;;;;;;;13.50;12.25;;;;;27.68;50.51;99523.72;5091189;27;45563;-70
2023/07/09 08:10:11;;;;;;;;;16.25;14.75;;;;;27.73;50.33;99516.81;5094697;27;46617;-69
2023/07/09 08:12:37;;;;;;;;;16.40;15.20;;;;;27.79;50.31;99516.19;5096026;27;45433;-70
2023/07/09 08:15:04;;;;;;;;;16.00;15.75;;;;;27.86;50.25;99518.22;5084578;27;45338;-70
2023/07/09 08:17:29;;;;;;;;;14.75;13.50;;;;;27.93;49.63;99519.28;5093501;27;45498;-70
2023/07/09 08:19:55;;;;;;;;;17.00;16.00;;;;;28.01;49.66;99519.31;5091199;27;46457;-70
2023/07/09 08:22:21;;;;;;;;;15.00;14.50;;;;;28.08;48.73;99513.09;5094770;27;45861;-70
2023/07/09 08:24:47;;;;;;;;;14.00;12.75;;;;;28.17;48.42;99515.81;5092772;27;45391;-69
2023/07/09 08:27:14;;;;;;;;;12.75;10.75;;;;;28.24;47.68;99515.03;5094941;27;45490;-70
2023/07/09 08:29:41;;;;;;;;;14.25;14.25;;;;;28.32;47.54;99516.94;5092763;27;46545;-70
2023/07/09 08:32:07;;;;;;;;;16.00;13.00;;;;;28.37;47.69;99520.81;5094265;27;45467;-70
2023/07/09 08:34:33;;;;;;;;;14.00;14.00;;;;;28.45;46.24;99523.56;5085667;27;45548;-70
2023/07/09 08:36:58;;;;;;;;;11.25;11.25;;;;;28.51;46.09;99518.47;5088885;27;45376;-70
2023/07/09 08:39:24;;;;;;;;;15.50;12.25;;;;;28.56;45.52;99525.13;5094713;27;45588;-70
2023/07/09 08:41:57;;;;;;;;;12.25;11.25;;;;;28.61;45.16;99522.75;5091823;27;45502;-69
2023/07/09 08:44:37;;;;;;;;;10.25;10.25;;;;;28.67;45.23;99516.66;5095476;27;45552;-70
2023/07/09 08:47:47;;;;;;;;;14.00;12.00;;;;;28.74;45.10;99514.97;5088962;27;45543;-70
2023/07/09 08:50:16;;;;;;;;;16.25;15.00;;;;;28.83;44.75;99521.28;5092395;27;48353;-70
2023/07/09 08:52:47;;;;;;;;;13.00;12.40;;;;;28.90;44.27;99514.16;5095532;27;45414;-70
2023/07/09 08:55:16;;;;;;;;;15.50;15.50;;;;;29.00;44.27;99516.72;5094832;27;45316;-70
2023/07/09 08:57:54;;;;;;;;;14.00;13.75;;;;;29.08;44.03;99514.84;5094984;27;45517;-70
2023/07/09 09:00:41;;;;;;;;;12.00;9.75;;;;;29.16;42.79;99517.56;5095101;27;45462;-70
2023/07/09 09:03:21;;;;;;;;;12.40;11.40;;;;;29.21;42.39;99521.63;5090039;27;45428;-70
2023/07/09 09:05:49;;;;;;;;;12.75;12.00;;;;;29.28;41.79;99511.78;5086577;27;45508;-71
2023/07/09 09:08:39;;;;;;;;;12.75;11.00;;;;;29.34;41.27;99509.22;5094540;27;45520;-71
2023/07/09 09:11:31;;;;;;;;;12.00;10.00;;;;;29.40;41.71;99507.72;5095367;27;46123;-70
2023/07/09 09:14:03;;;;;;;;;15.80;13.20;;;;;29.42;41.06;99508.41;5093169;27;45391;-70
2023/07/09 09:16:32;;;;;;;;;10.00;9.00;;;;;29.43;41.38;99505.53;5095069;27;45421;-70
2023/07/09 09:19:01;;;;;;;;;13.00;13.00;;;;;29.46;40.99;99497.03;5094146;27;45577;-70
2023/07/09 09:21:36;;;;;;;;;12.00;12.00;;;;;29.50;41.44;99500.22;5087748;27;46676;-69
2023/07/09 09:24:14;;;;;;;;;11.80;11.00;;;;;29.56;40.63;99494.09;5092751;27;45453;-69
2023/07/09 09:26:43;;;;;;;;;13.00;11.00;;;;;29.63;40.60;99494.28;5091354;27;45628;-69
2023/07/09 09:29:15;;;;;;;;;13.25;11.75;;;;;29.70;40.49;99489.81;5094713;27;45384;-70
2023/07/09 09:31:45;;;;;;;;;13.75;13.25;;;;;29.75;40.68;99492.88;5095045;27;46365;-70
2023/07/09 09:34:28;;;;;;;;;14.60;14.00;;;;;29.78;40.51;99487.94;5094002;27;45441;-70
2023/07/09 09:36:55;;;;;;;;;12.00;12.00;;;;;29.84;40.45;99486.38;5094985;27;45416;-70
2023/07/09 09:39:22;;;;;;;;;11.00;9.50;;;;;29.90;40.26;99476.66;5090299;27;45643;-69
2023/07/09 09:41:48;;;;;;;;;14.00;11.50;;;;;29.95;40.07;99488.72;5086608;27;45475;-69
2023/07/09 09:44:30;;;;;;;;;12.75;11.75;;;;;29.99;40.21;99481.09;5091404;27;45458;-70
2023/07/09 09:46:57;;;;;;;;;12.25;12.25;;;;;30.03;40.14;99475.09;5087189;27;45518;-69
2023/07/09 09:49:23;;;;;;;;;16.25;13.50;;;;;30.08;40.09;99474.56;5093421;27;45505;-70
2023/07/09 09:51:48;;;;;;;;;10.75;9.75;;;;;30.14;40.05;99476.59;5094704;27;45562;-70
2023/07/09 09:54:27;;;;;;;;;11.50;10.75;;;;;30.19;39.87;99469.56;5093660;27;45439;-70
2023/07/09 09:56:54;;;;;;;;;13.75;13.00;;;;;30.23;39.61;99470.06;5093223;27;45428;-70
2023/07/09 09:59:24;;;;;;;;;9.25;9.25;;;;;30.28;39.26;99462.22;5090565;27;45493;-70
2023/07/09 10:02:02;;;;;;;;;14.00;12.50;;;;;30.33;39.86;99456.25;5079309;27;46421;-70
2023/07/09 10:04:28;;;;;;;;;14.60;12.40;;;;;30.38;39.52;99451.94;5091869;27;45478;-70
2023/07/09 10:07:05;;;;;;;;;11.50;11.00;;;;;30.47;39.05;99452.75;5094594;27;45388;-70
2023/07/09 10:09:53;;;;;;;;;12.25;11.00;;;;;30.53;39.78;99447.44;5092073;27;45655;-70
2023/07/09 10:12:24;;;;;;;;;12.25;12.25;;;;;30.62;38.96;99448.25;5094611;27;46414;-70
2023/07/09 10:15:00;;;;;;;;;12.80;12.80;;;;;30.72;39.02;99454.28;5086371;27;45323;-70
2023/07/09 10:17:59;;;;;;;;;12.00;10.75;;;;;30.79;38.17;99452.53;5092363;27;45435;-70
2023/07/09 10:20:31;;;;;;;;;13.00;12.75;;;;;30.86;38.29;99445.31;5086098;27;45623;-72
2023/07/09 10:23:45;;;;;;;;;12.50;12.00;;;;;30.97;38.74;99448.66;5092880;27;45603;-72
2023/07/09 10:26:45;;;;;;;;;11.60;10.60;;;;;31.07;38.33;99450.06;5052163;27;45460;-72
2023/07/09 10:29:16;;;;;;;;;15.25;14.25;;;;;31.13;38.21;99443.94;5081758;27;45601;-73
2023/07/09 10:32:00;;;;;;;;;15.50;12.00;;;;;31.19;38.20;99443.16;5086792;27;45454;-72
2023/07/09 10:34:51;;;;;;;;;9.00;8.50;;;;;31.27;38.28;99453.16;5081055;27;45458;-72
2023/07/09 10:37:35;;;;;;;;;13.40;11.60;;;;;31.30;38.66;99447.34;5079374;27;45499;-72
2023/07/09 10:40:03;;;;;;;;;12.50;12.50;;;;;31.36;38.47;99449.28;5090317;27;45353;-73
2023/07/09 10:42:42;;;;;;;;;12.25;12.00;;;;;31.41;39.08;99444.13;5083766;27;45362;-72
2023/07/09 10:45:14;;;;;;;;;15.00;12.50;;;;;31.45;38.66;99448.19;5092880;27;45660;-72
2023/07/09 10:47:44;;;;;;;;;14.20;13.80;;;;;31.49;38.70;99435.88;5090054;27;45367;-72
2023/07/09 10:50:22;;;;;;;;;12.75;12.75;;;;;31.53;38.48;99434.44;5071930;27;45627;-73
2023/07/09 10:52:54;;;;;;;;;17.25;15.50;;;;;31.59;38.30;99438.31;5079744;27;45426;-73
2023/07/09 10:55:39;;;;;;;;;18.00;17.00;;;;;31.67;38.55;99429.25;5088066;27;45726;-72
2023/07/09 10:58:14;;;;;;;;;14.40;14.40;;;;;31.70;38.14;99424.22;5088712;27;45951;-74
2023/07/09 11:00:41;;;;;;;;;18.00;16.00;;;;;31.76;38.46;99425.38;5095072;27;45381;-73
2023/07/09 11:03:35;;;;;;;;;17.25;15.75;;;;;31.80;39.43;99423.94;5097066;27;45378;-73
2023/07/09 11:06:03;;;;;;;;;16.50;16.25;;;;;31.86;39.41;99428.63;5093881;27;45621;-73
2023/07/09 11:08:36;;;;;;;;;17.75;17.25;;;;;31.91;39.08;99416.13;5097897;27;45439;-73
2023/07/09 11:11:12;;;;;;;;;17.00;15.50;;;;;31.99;39.36;99404.28;5097691;27;45409;-73
2023/07/09 11:13:43;;;;;;;;;12.75;12.75;;;;;32.06;39.26;99407.91;5095627;27;45527;-73
2023/07/09 11:16:14;;;;;;;;;10.50;10.50;;;;;32.15;39.59;99401.31;5084582;27;46658;-73
2023/07/09 11:18:39;;;;;;;;;16.00;15.00;;;;;32.25;39.44;99409.19;5097358;27;45339;-73
2023/07/09 11:21:15;;;;;;;;;14.25;14.25;;;;;32.28;40.25;99400.63;5098242;27;45443;-73
2023/07/09 11:23:51;;;;;;;;;13.50;13.50;;;;;32.33;39.18;99411.81;5113499;27;45644;-73
2023/07/09 11:26:33;;;;;;;;;15.50;15.00;;;;;32.38;39.03;99401.13;5097937;27;45484;-73